Time;durP1;ratioP1;P1;durP2;ratioP2;P2;SDS_P1;SDS_P2;PMS_P1;PMS_P2;Temp;Humidity;BMP_temperature;BMP_pressure;BME280_temperature;BME280_humidity;BME280_pressure;Samples;Min_cycle;Max_cycle;Signal;HPM_P1;HPM_P2
2023/11/20 00:00:17;;;;;;;0.00;0.00;;;;;;;7.91;100.00;95775.56;1027588;28;20031;-72
2023/11/20 00:00:48;;;;;;;0.15;0.15;;;;;;;8.00;100.00;95793.19;1026679;28;20019;-73
2023/11/20 00:01:22;;;;;;;0.00;0.00;;;;;;;7.95;100.00;95779.31;1021804;29;20023;-74
2023/11/20 00:01:53;;;;;;;0.08;0.08;;;;;;;7.98;100.00;95789.25;1024105;28;20015;-74
2023/11/20 00:02:24;;;;;;;0.22;0.22;;;;;;;7.96;100.00;95791.31;1026540;28;20762;-74
2023/11/20 00:02:54;;;;;;;0.10;0.10;;;;;;;7.94;100.00;95782.94;1026324;28;20019;-73
2023/11/20 00:03:25;;;;;;;0.00;0.00;;;;;;;7.96;100.00;95791.31;1023414;28;20019;-72
2023/11/20 00:03:55;;;;;;;0.00;0.00;;;;;;;7.94;100.00;95785.53;1030330;28;20050;-72
2023/11/20 00:04:26;;;;;;;0.20;0.20;;;;;;;7.87;100.00;95788.34;1032755;28;20298;-72
2023/11/20 00:04:56;;;;;;;0.03;0.03;;;;;;;7.91;100.00;95778.97;1034506;28;20413;-74
2023/11/20 00:05:27;;;;;;;0.10;0.10;;;;;;;7.95;100.00;95787.94;1034363;28;20025;-73
2023/11/20 00:05:57;;;;;;;0.10;0.10;;;;;;;7.89;100.00;95786.28;1034458;28;20021;-73
2023/11/20 00:06:28;;;;;;;0.00;0.00;;;;;;;7.95;100.00;95792.38;1038697;28;20485;-74
2023/11/20 00:06:58;;;;;;;0.00;0.00;;;;;;;7.95;100.00;95787.13;1038441;28;20401;-73
2023/11/20 00:07:29;;;;;;;0.17;0.17;;;;;;;7.95;100.00;95797.59;1038752;28;20037;-73
2023/11/20 00:07:59;;;;;;;0.10;0.10;;;;;;;7.93;100.00;95795.22;1042558;28;20029;-74
2023/11/20 00:08:29;;;;;;;0.00;0.00;;;;;;;7.88;100.00;95789.13;1042368;28;20086;-73
2023/11/20 00:09:00;;;;;;;0.30;0.30;;;;;;;7.95;100.00;95792.38;1034534;28;20691;-74
2023/11/20 00:09:31;;;;;;;0.00;0.00;;;;;;;7.96;100.00;95807.78;1034649;28;20449;-77
2023/11/20 00:10:04;;;;;;;0.00;0.00;;;;;;;7.95;100.00;95801.00;1030625;28;20133;-74
2023/11/20 00:10:38;;;;;;;0.00;0.00;;;;;;;7.93;100.00;95797.03;1035388;28;20265;-73
2023/11/20 00:11:09;;;;;;;0.35;0.35;;;;;;;7.93;100.00;95799.66;1042167;28;20259;-74
2023/11/20 00:11:39;;;;;;;1.38;1.13;;;;;;;7.92;100.00;95792.84;1043736;28;20279;-72
2023/11/20 00:12:10;;;;;;;0.60;0.60;;;;;;;7.89;100.00;95791.50;1046965;28;20586;-74
2023/11/20 00:12:40;;;;;;;0.20;0.20;;;;;;;7.93;100.00;95797.03;1042616;28;20134;-73
2023/11/20 00:13:11;;;;;;;0.00;0.00;;;;;;;7.82;100.00;95779.66;1038624;28;20029;-73
2023/11/20 00:13:41;;;;;;;0.00;0.00;;;;;;;7.90;100.00;95792.28;1034675;28;20026;-72
2023/11/20 00:14:13;;;;;;;0.00;0.00;;;;;;;7.86;100.00;95791.22;1030484;28;20034;-73
2023/11/20 00:14:43;;;;;;;0.00;0.00;;;;;;;7.75;100.00;95772.81;1030736;28;20409;-72
2023/11/20 00:15:14;;;;;;;0.00;0.00;;;;;;;7.86;100.00;95791.22;1030759;28;20313;-75
2023/11/20 00:15:44;;;;;;;2.45;0.13;;;;;;;7.83;100.00;95792.47;1038595;28;20032;-73
2023/11/20 00:16:15;;;;;;;0.15;0.15;;;;;;;7.83;100.00;95794.31;1042924;28;20026;-74
2023/11/20 00:16:45;;;;;;;0.00;0.00;;;;;;;7.84;100.00;95796.66;1042936;28;20025;-76
2023/11/20 00:17:16;;;;;;;0.00;0.00;;;;;;;7.77;100.00;95778.56;1046598;28;20514;-74
2023/11/20 00:17:47;;;;;;;0.10;0.10;;;;;;;7.76;100.00;95779.59;1032790;28;20556;-73
2023/11/20 00:18:17;;;;;;;0.10;0.00;;;;;;;7.85;100.00;95789.63;1030338;28;20030;-73
2023/11/20 00:18:48;;;;;;;0.00;0.00;;;;;;;7.83;100.00;95783.84;1030190;28;20276;-72
2023/11/20 00:19:18;;;;;;;0.00;0.00;;;;;;;7.87;100.00;95784.94;1038358;28;20117;-72
2023/11/20 00:19:50;;;;;;;0.10;0.10;;;;;;;7.84;100.00;95777.59;1038923;28;20029;-72
2023/11/20 00:20:21;;;;;;;0.52;0.52;;;;;;;7.84;100.00;95777.59;1038875;28;20655;-73
2023/11/20 00:20:51;;;;;;;0.08;0.08;;;;;;;7.88;100.00;95786.50;1030495;28;20268;-72
2023/11/20 00:21:21;;;;;;;0.00;0.00;;;;;;;7.88;100.00;95783.91;1029723;28;20030;-72
2023/11/20 00:21:52;;;;;;;0.00;0.00;;;;;;;7.82;100.00;95779.66;1030516;28;20438;-72
2023/11/20 00:22:22;;;;;;;0.10;0.10;;;;;;;7.89;100.00;95780.28;1034543;28;20409;-74
2023/11/20 00:22:53;;;;;;;0.90;0.90;;;;;;;7.82;100.00;95779.66;1038406;28;20017;-74
2023/11/20 00:23:23;;;;;;;0.10;0.10;;;;;;;7.87;100.00;95779.72;1038523;28;20022;-73
2023/11/20 00:23:54;;;;;;;0.00;0.00;;;;;;;7.88;100.00;95782.09;1030168;28;20029;-73
2023/11/20 00:24:24;;;;;;;0.75;0.63;;;;;;;7.87;100.00;95782.31;1030638;28;20022;-75
2023/11/20 00:24:56;;;;;;;0.30;0.30;;;;;;;7.88;100.00;95781.28;1034315;28;20096;-74
2023/11/20 00:25:26;;;;;;;0.10;0.10;;;;;;;7.69;100.00;95752.88;1034520;28;20483;-74
2023/11/20 00:25:57;;;;;;;0.03;0.03;;;;;;;7.88;100.00;95782.09;1034327;28;20268;-74
2023/11/20 00:26:27;;;;;;;0.10;0.10;;;;;;;7.87;100.00;95780.50;1030877;28;20030;-74
2023/11/20 00:26:58;;;;;;;0.00;0.00;;;;;;;7.86;100.00;95775.53;1034594;28;20687;-74
2023/11/20 00:27:28;;;;;;;0.10;0.00;;;;;;;7.84;100.00;95782.81;1038299;28;20033;-74
2023/11/20 00:27:59;;;;;;;0.00;0.00;;;;;;;7.84;100.00;95782.81;1030510;28;20018;-75
2023/11/20 00:28:29;;;;;;;0.00;0.00;;;;;;;7.78;100.00;95769.72;1034642;28;20037;-73
2023/11/20 00:29:00;;;;;;;0.20;0.20;;;;;;;7.87;100.00;95787.56;1038369;28;20044;-72
2023/11/20 00:29:30;;;;;;;0.05;0.05;;;;;;;7.84;100.00;95775.75;1042593;28;20028;-73
2023/11/20 00:30:01;;;;;;;0.30;0.30;;;;;;;7.84;100.00;95785.44;1042627;28;20017;-73
2023/11/20 00:30:31;;;;;;;0.00;0.00;;;;;;;7.84;100.00;95778.38;1042789;28;20021;-72
2023/11/20 00:31:01;;;;;;;0.43;0.28;;;;;;;7.85;100.00;95782.59;1042788;28;20092;-73
2023/11/20 00:31:34;;;;;;;0.00;0.00;;;;;;;7.74;100.00;95773.81;1036123;28;20037;-73
2023/11/20 00:32:05;;;;;;;0.25;0.25;;;;;;;7.83;100.00;95791.69;1030498;28;20027;-72
2023/11/20 00:32:36;;;;;;;0.00;0.00;;;;;;;7.88;100.00;95789.94;1030646;28;20265;-74
2023/11/20 00:33:06;;;;;;;0.00;0.00;;;;;;;7.88;100.00;95784.72;1034980;28;20385;-73
2023/11/20 00:33:37;;;;;;;0.08;0.08;;;;;;;7.87;100.00;95790.94;1039603;28;20033;-74
2023/11/20 00:34:08;;;;;;;0.00;0.00;;;;;;;7.80;100.00;95775.47;1042511;28;20025;-73
2023/11/20 00:34:39;;;;;;;3.40;0.20;;;;;;;7.84;100.00;95780.19;1038347;28;20087;-73
2023/11/20 00:35:10;;;;;;;0.10;0.10;;;;;;;7.84;100.00;95782.81;1034754;28;20296;-75
2023/11/20 00:35:41;;;;;;;0.00;0.00;;;;;;;7.76;100.00;95765.75;1027037;28;20274;-74
2023/11/20 00:36:12;;;;;;;0.52;0.47;;;;;;;7.83;100.00;95776.03;1026587;28;20258;-72
2023/11/20 00:36:43;;;;;;;0.00;0.00;;;;;;;7.84;100.00;95775.75;1026347;28;20109;-74
2023/11/20 00:37:14;;;;;;;0.10;0.10;;;;;;;7.80;100.00;95767.63;1026590;28;20026;-74
2023/11/20 00:37:47;;;;;;;0.00;0.00;;;;;;;7.76;100.00;95765.75;1026903;28;20270;-75
2023/11/20 00:38:18;;;;;;;0.00;0.00;;;;;;;7.79;100.00;95757.44;1035068;28;20268;-75
2023/11/20 00:38:51;;;;;;;0.10;0.10;;;;;;;7.84;100.00;95782.81;1030886;28;20293;-72
2023/11/20 00:39:22;;;;;;;0.10;0.10;;;;;;;7.80;100.00;95772.84;1026290;28;20034;-73
2023/11/20 00:39:53;;;;;;;0.00;0.00;;;;;;;7.81;100.00;95778.84;1030047;28;20350;-73
2023/11/20 00:40:23;;;;;;;0.10;0.10;;;;;;;7.71;100.00;95756.06;1030418;28;20269;-72
2023/11/20 00:40:53;;;;;;;0.13;0.13;;;;;;;7.80;100.00;95777.28;1034127;28;20458;-74
2023/11/20 00:41:25;;;;;;;0.00;0.00;;;;;;;7.77;100.00;95772.53;1034046;28;20995;-73
2023/11/20 00:41:55;;;;;;;0.00;0.00;;;;;;;7.80;100.00;95769.44;1038383;28;20040;-72
2023/11/20 00:42:26;;;;;;;0.00;0.00;;;;;;;7.78;100.00;95780.16;1038723;28;20279;-73
2023/11/20 00:42:56;;;;;;;0.08;0.08;;;;;;;7.78;100.00;95766.31;1038567;28;20021;-78
2023/11/20 00:43:26;;;;;;;0.00;0.00;;;;;;;7.74;100.00;95776.44;1038816;28;20029;-74
2023/11/20 00:43:59;;;;;;;0.00;0.00;;;;;;;7.79;100.00;95767.88;1030240;28;20556;-73
2023/11/20 00:44:29;;;;;;;0.10;0.10;;;;;;;7.80;100.00;95772.84;1022262;29;20031;-74
2023/11/20 00:45:00;;;;;;;0.15;0.15;;;;;;;7.82;100.00;95777.84;1022828;28;20267;-74
2023/11/20 00:45:30;;;;;;;0.20;0.20;;;;;;;7.78;100.00;95764.47;1026629;28;20034;-74
2023/11/20 00:46:01;;;;;;;0.00;0.00;;;;;;;7.71;100.00;95761.28;1030705;28;20646;-75
2023/11/20 00:46:31;;;;;;;0.00;0.00;;;;;;;7.71;100.00;95774.31;1030555;28;20033;-75
2023/11/20 00:47:02;;;;;;;0.00;0.00;;;;;;;7.75;100.00;95770.19;1026509;28;20082;-72
2023/11/20 00:47:33;;;;;;;0.13;0.13;;;;;;;7.72;100.00;95764.66;1030436;28;20471;-74
2023/11/20 00:48:03;;;;;;;0.00;0.00;;;;;;;7.72;100.00;95770.69;1034032;28;20269;-74
2023/11/20 00:48:34;;;;;;;3.40;0.20;;;;;;;7.75;100.00;95775.41;1030931;28;20457;-74
2023/11/20 00:49:05;;;;;;;0.10;0.10;;;;;;;7.71;100.00;95763.88;1038572;28;20026;-73
2023/11/20 00:49:37;;;;;;;0.00;0.00;;;;;;;7.73;100.00;95767.03;1030287;28;20111;-74
2023/11/20 00:50:08;;;;;;;0.00;0.00;;;;;;;7.71;100.00;95774.31;1026886;28;20281;-73
2023/11/20 00:50:38;;;;;;;0.10;0.10;;;;;;;7.63;100.00;95756.47;1034482;28;20360;-73
2023/11/20 00:51:09;;;;;;;0.00;0.00;;;;;;;7.70;100.00;95772.72;1034493;28;20101;-73
2023/11/20 00:51:39;;;;;;;0.20;0.20;;;;;;;7.67;100.00;95773.22;1042636;28;20034;-73
2023/11/20 00:52:09;;;;;;;0.55;0.55;;;;;;;7.69;100.00;95773.78;1046776;28;20028;-74
2023/11/20 00:52:40;;;;;;;0.10;0.10;;;;;;;7.69;100.00;95765.16;1046868;28;20047;-73
2023/11/20 00:53:11;;;;;;;0.00;0.00;;;;;;;7.69;100.00;95763.31;1042431;28;20083;-72
2023/11/20 00:53:42;;;;;;;0.10;0.10;;;;;;;7.71;100.00;95774.31;1036374;28;20063;-75
2023/11/20 00:54:12;;;;;;;0.10;0.10;;;;;;;7.69;100.00;95765.94;1035360;28;20261;-74
2023/11/20 00:54:43;;;;;;;0.15;0.08;;;;;;;7.69;100.00;95770.38;1031304;28;20023;-74
2023/11/20 00:55:13;;;;;;;0.45;0.45;;;;;;;7.63;100.00;95764.28;1031163;28;20474;-73
2023/11/20 00:55:44;;;;;;;0.10;0.10;;;;;;;7.65;100.00;95777.13;1035218;28;20014;-75
2023/11/20 00:56:18;;;;;;;0.00;0.00;;;;;;;7.66;100.00;95774.25;1031131;28;20018;-74
2023/11/20 00:56:49;;;;;;;0.65;0.65;;;;;;;7.63;100.00;95777.34;1028173;28;20026;-73
2023/11/20 00:57:19;;;;;;;0.00;0.00;;;;;;;7.59;100.00;95770.25;1035167;28;20267;-73
2023/11/20 00:57:50;;;;;;;0.15;0.15;;;;;;;7.61;100.00;95768.94;1031615;28;20343;-76
2023/11/20 00:58:20;;;;;;;0.10;0.10;;;;;;;7.62;100.00;95772.38;1030576;28;20037;-72
2023/11/20 00:58:50;;;;;;;0.03;0.03;;;;;;;7.54;100.00;95768.34;1031015;28;20014;-73
2023/11/20 00:59:21;;;;;;;0.00;0.00;;;;;;;7.57;100.00;95773.09;1023252;28;20794;-73
2023/11/20 00:59:51;;;;;;;0.00;0.00;;;;;;;7.54;100.00;95774.38;1027292;28;20022;-72
2023/11/20 01:00:22;;;;;;;0.20;0.20;;;;;;;7.53;100.00;95772.00;1026410;28;20018;-75
2023/11/20 01:00:54;;;;;;;0.10;0.10;;;;;;;7.49;100.00;95766.47;1023438;28;20558;-73
2023/11/20 01:01:24;;;;;;;0.00;0.00;;;;;;;7.54;100.00;95777.00;1022593;29;20349;-73
2023/11/20 01:01:55;;;;;;;0.10;0.10;;;;;;;7.53;100.00;95775.41;1023608;28;20997;-73
2023/11/20 01:02:25;;;;;;;0.15;0.15;;;;;;;7.45;100.00;95759.38;1031715;28;20043;-73
2023/11/20 01:02:56;;;;;;;0.00;0.00;;;;;;;7.50;100.00;95777.69;1035165;28;20077;-73
2023/11/20 01:03:27;;;;;;;0.30;0.30;;;;;;;7.47;100.00;95767.75;1030414;28;20785;-72
2023/11/20 01:03:57;;;;;;;0.00;0.00;;;;;;;7.52;100.00;95780.88;1027145;28;20019;-74
2023/11/20 01:04:28;;;;;;;0.10;0.10;;;;;;;7.51;100.00;95784.50;1021666;28;20023;-72
2023/11/20 01:04:59;;;;;;;0.20;0.20;;;;;;;7.44;100.00;95766.41;1022980;28;20566;-73
2023/11/20 01:05:30;;;;;;;0.73;0.22;;;;;;;7.49;100.00;95781.34;1030673;28;20868;-74
2023/11/20 01:06:04;;;;;;;0.00;0.00;;;;;;;7.50;100.00;95783.72;1027382;28;20293;-72
2023/11/20 01:06:41;;;;;;;0.00;0.00;;;;;;;7.48;100.00;95777.97;1027306;28;20027;-72
2023/11/20 01:07:12;;;;;;;9.32;0.22;;;;;;;7.49;100.00;95786.56;1027935;28;21055;-75
2023/11/20 01:07:42;;;;;;;1.33;1.23;;;;;;;7.49;100.00;95783.97;1036077;28;20265;-73
2023/11/20 01:08:13;;;;;;;0.00;0.00;;;;;;;7.47;100.00;95789.41;1039324;28;20021;-73
2023/11/20 01:08:43;;;;;;;0.10;0.10;;;;;;;7.51;100.00;95785.31;1035834;28;20026;-74
2023/11/20 01:09:13;;;;;;;0.10;0.10;;;;;;;7.52;100.00;95783.47;1043371;28;20500;-73
2023/11/20 01:09:44;;;;;;;0.10;0.10;;;;;;;7.44;100.00;95776.84;1039208;28;20041;-74
2023/11/20 01:10:14;;;;;;;0.00;0.00;;;;;;;7.48;100.00;95785.00;1035021;28;20026;-74
2023/11/20 01:10:45;;;;;;;0.00;0.00;;;;;;;7.47;100.00;95783.41;1035310;28;20026;-74
2023/11/20 01:11:17;;;;;;;0.00;0.00;;;;;;;7.47;100.00;95786.00;1026367;28;20023;-75
2023/11/20 01:11:48;;;;;;;0.00;0.00;;;;;;;7.48;100.00;95793.63;1031241;28;20549;-74
2023/11/20 01:12:18;;;;;;;0.00;0.00;;;;;;;7.50;100.00;95782.94;1030911;28;20288;-73
2023/11/20 01:12:49;;;;;;;0.20;0.20;;;;;;;7.46;100.00;95781.84;1032086;28;20453;-73
2023/11/20 01:13:19;;;;;;;0.10;0.10;;;;;;;7.48;100.00;95785.00;1039227;28;20100;-73
2023/11/20 01:13:50;;;;;;;0.10;0.10;;;;;;;7.49;100.00;95787.34;1032899;28;20382;-74
2023/11/20 01:14:20;;;;;;;0.00;0.00;;;;;;;7.49;100.00;95787.34;1031401;28;20061;-74
2023/11/20 01:14:51;;;;;;;0.00;0.00;;;;;;;7.45;100.00;95790.72;1031139;28;20026;-73
2023/11/20 01:15:21;;;;;;;0.20;0.20;;;;;;;7.46;100.00;95784.44;1031878;28;20032;-75
2023/11/20 01:15:52;;;;;;;0.55;0.50;;;;;;;7.47;100.00;95783.41;1031183;28;20049;-74
2023/11/20 01:16:22;;;;;;;0.43;0.43;;;;;;;7.51;100.00;95794.94;1027307;28;20023;-72
2023/11/20 01:16:53;;;;;;;0.00;0.00;;;;;;;7.46;100.00;95789.66;1027097;28;20027;-72
2023/11/20 01:17:23;;;;;;;0.00;0.00;;;;;;;7.44;100.00;95786.50;1018503;29;20028;-72
2023/11/20 01:17:53;;;;;;;0.03;0.03;;;;;;;7.46;100.00;95784.44;1023067;28;20015;-74
2023/11/20 01:18:24;;;;;;;0.10;0.10;;;;;;;7.42;100.00;95778.13;1023219;29;20027;-73
2023/11/20 01:18:55;;;;;;;0.98;0.38;;;;;;;7.45;100.00;95790.72;1021046;28;20028;-76
2023/11/20 01:19:26;;;;;;;0.30;0.30;;;;;;;7.45;100.00;95786.28;1026978;28;20019;-73
2023/11/20 01:19:56;;;;;;;0.00;0.00;;;;;;;7.44;100.00;95789.88;1027274;28;20273;-73
2023/11/20 01:20:27;;;;;;;0.00;0.00;;;;;;;7.43;100.00;95782.31;1035064;28;20069;-73
2023/11/20 01:20:57;;;;;;;0.00;0.00;;;;;;;7.44;100.00;95789.09;1031418;28;20101;-73
2023/11/20 01:21:28;;;;;;;0.00;0.00;;;;;;;7.44;100.00;95784.66;1034664;28;20026;-73
2023/11/20 01:21:58;;;;;;;0.00;0.00;;;;;;;7.47;100.00;95783.41;1035174;28;20033;-74
2023/11/20 01:22:29;;;;;;;0.10;0.10;;;;;;;7.48;100.00;95779.78;1039145;28;20021;-74
2023/11/20 01:22:59;;;;;;;0.47;0.40;;;;;;;7.47;100.00;95788.63;1043320;28;20027;-73
2023/11/20 01:23:30;;;;;;;0.00;0.00;;;;;;;7.42;100.00;95775.53;1039134;28;20021;-75
2023/11/20 01:24:00;;;;;;;0.00;0.00;;;;;;;7.50;100.00;95793.38;1039380;28;20468;-72
2023/11/20 01:24:31;;;;;;;0.10;0.10;;;;;;;7.52;100.00;95789.50;1035078;28;20025;-74
2023/11/20 01:25:01;;;;;;;1.55;0.10;;;;;;;7.49;100.00;95783.97;1027099;28;20035;-74
2023/11/20 01:25:32;;;;;;;1.30;1.05;;;;;;;7.46;100.00;95781.84;1031406;28;20097;-73
2023/11/20 01:26:03;;;;;;;0.10;0.10;;;;;;;7.44;100.00;95776.84;1035032;28;20030;-74
2023/11/20 01:26:35;;;;;;;0.03;0.03;;;;;;;7.44;100.00;95779.44;1031344;28;20022;-73
2023/11/20 01:27:09;;;;;;;0.00;0.00;;;;;;;7.43;100.00;95777.88;1031247;28;20465;-72
2023/11/20 01:27:39;;;;;;;0.00;0.00;;;;;;;7.44;100.00;95783.88;1026734;28;20288;-72
2023/11/20 01:28:10;;;;;;;0.55;0.30;;;;;;;7.44;100.00;95778.66;1026982;28;20269;-76
2023/11/20 01:28:40;;;;;;;0.08;0.08;;;;;;;7.50;100.00;95798.59;1027104;28;20026;-73
2023/11/20 01:29:10;;;;;;;0.03;0.03;;;;;;;7.45;100.00;95788.09;1029245;28;20073;-74
2023/11/20 01:29:41;;;;;;;0.00;0.00;;;;;;;7.49;100.00;95786.56;1026972;28;20027;-75
2023/11/20 01:30:11;;;;;;;0.00;0.00;;;;;;;7.53;100.00;95793.66;1022714;29;20023;-73
2023/11/20 01:30:42;;;;;;;0.00;0.00;;;;;;;7.55;100.00;95790.84;1020017;28;20028;-72
2023/11/20 01:31:12;;;;;;;0.10;0.10;;;;;;;7.50;100.00;95778.50;1026445;28;20023;-72
2023/11/20 01:31:43;;;;;;;0.38;0.38;;;;;;;7.57;100.00;95788.75;1027170;28;20097;-73
2023/11/20 01:32:14;;;;;;;0.20;0.20;;;;;;;7.56;100.00;95787.19;1027093;28;20026;-74
2023/11/20 01:32:46;;;;;;;0.00;0.00;;;;;;;7.57;100.00;95788.75;1030854;28;20631;-73
2023/11/20 01:33:16;;;;;;;0.80;0.50;;;;;;;7.49;100.00;95778.75;1030979;28;20100;-74
2023/11/20 01:33:47;;;;;;;0.00;0.00;;;;;;;7.57;100.00;95786.16;1031077;28;20262;-75
2023/11/20 01:34:17;;;;;;;0.13;0.10;;;;;;;7.54;100.00;95778.78;1035077;28;20072;-74
2023/11/20 01:34:48;;;;;;;0.10;0.10;;;;;;;7.59;100.00;95778.88;1035406;28;20029;-74
2023/11/20 01:35:18;;;;;;;0.00;0.00;;;;;;;7.60;100.00;95779.66;1035118;28;20501;-74
2023/11/20 01:35:49;;;;;;;0.00;0.00;;;;;;;7.62;100.00;95780.22;1030775;28;20345;-73
2023/11/20 01:36:20;;;;;;;0.47;0.47;;;;;;;7.62;100.00;95785.44;1031239;28;20045;-74
2023/11/20 01:36:50;;;;;;;0.10;0.10;;;;;;;7.61;100.00;95776.00;1035264;28;20025;-72
2023/11/20 01:37:20;;;;;;;0.00;0.00;;;;;;;7.54;100.00;95774.38;1039479;28;20048;-73
2023/11/20 01:37:51;;;;;;;0.03;0.03;;;;;;;7.57;100.00;95783.53;1043139;28;20009;-73
2023/11/20 01:38:21;;;;;;;0.20;0.20;;;;;;;7.59;100.00;95778.88;1043312;28;20984;-72
2023/11/20 01:38:52;;;;;;;0.00;0.00;;;;;;;7.59;100.00;95778.88;1035324;28;20046;-74
2023/11/20 01:39:22;;;;;;;0.10;0.10;;;;;;;7.59;100.00;95771.03;1035073;28;20018;-74
2023/11/20 01:39:53;;;;;;;0.32;0.32;;;;;;;7.62;100.00;95786.22;1034924;28;20460;-74
2023/11/20 01:40:23;;;;;;;0.10;0.10;;;;;;;7.59;100.00;95786.72;1030923;28;20545;-74
2023/11/20 01:40:54;;;;;;;0.08;0.08;;;;;;;7.36;100.00;95755.59;1038911;28;20032;-75
2023/11/20 01:41:27;;;;;;;0.20;0.20;;;;;;;7.57;100.00;95793.97;1034465;28;20297;-73
2023/11/20 01:41:58;;;;;;;0.17;0.17;;;;;;;7.53;100.00;95779.84;1034962;28;20026;-74
2023/11/20 01:42:28;;;;;;;0.20;0.20;;;;;;;7.59;100.00;95786.72;1030827;28;20385;-74
2023/11/20 01:42:59;;;;;;;0.03;0.03;;;;;;;7.60;100.00;95790.88;1031879;28;20014;-73
2023/11/20 01:43:29;;;;;;;0.08;0.08;;;;;;;7.58;100.00;95792.97;1035414;28;20536;-74
2023/11/20 01:44:00;;;;;;;0.10;0.10;;;;;;;7.55;100.00;95785.63;1039204;28;20009;-74
2023/11/20 01:44:30;;;;;;;0.30;0.30;;;;;;;7.59;100.00;95793.75;1038775;28;20025;-73
2023/11/20 01:45:01;;;;;;;0.00;0.00;;;;;;;7.59;100.00;95801.59;1034560;28;20018;-73
2023/11/20 01:45:33;;;;;;;0.10;0.10;;;;;;;7.56;100.00;95784.56;1030915;28;20026;-74
2023/11/20 01:46:07;;;;;;;0.28;0.28;;;;;;;7.56;100.00;95795.03;1031228;28;20030;-74
2023/11/20 01:46:37;;;;;;;0.32;0.32;;;;;;;7.57;100.00;95797.38;1030813;28;20740;-74
2023/11/20 01:47:08;;;;;;;0.10;0.10;;;;;;;7.57;100.00;95791.38;1030931;28;20262;-73
2023/11/20 01:47:38;;;;;;;0.00;0.00;;;;;;;7.55;100.00;95780.41;1026672;28;20026;-73
2023/11/20 01:48:09;;;;;;;0.30;0.30;;;;;;;7.55;100.00;95780.41;1023139;28;20055;-73
2023/11/20 01:48:40;;;;;;;0.20;0.13;;;;;;;7.53;100.00;95779.84;1026837;28;20021;-74
2023/11/20 01:49:11;;;;;;;0.00;0.00;;;;;;;7.56;100.00;95787.19;1018985;29;20107;-74
2023/11/20 01:49:42;;;;;;;0.00;0.00;;;;;;;7.54;100.00;95784.00;1025986;28;20794;-74
2023/11/20 01:50:12;;;;;;;0.10;0.10;;;;;;;7.58;100.00;95785.13;1022947;29;20046;-74
2023/11/20 01:50:43;;;;;;;0.40;0.40;;;;;;;7.56;100.00;95790.59;1022860;29;20290;-74
2023/11/20 01:51:13;;;;;;;0.10;0.10;;;;;;;7.56;100.00;95790.59;1022441;28;20018;-74
2023/11/20 01:51:44;;;;;;;0.00;0.00;;;;;;;7.56;100.00;95787.19;1030616;28;20014;-75
2023/11/20 01:52:14;;;;;;;0.00;0.00;;;;;;;7.50;100.00;95782.94;1026846;28;20071;-75
2023/11/20 01:52:46;;;;;;;0.15;0.15;;;;;;;7.56;100.00;95781.97;1027265;28;20475;-76
2023/11/20 01:53:16;;;;;;;0.00;0.00;;;;;;;7.55;100.00;95781.19;1023336;28;20423;-73
2023/11/20 01:53:47;;;;;;;0.13;0.08;;;;;;;7.55;100.00;95783.00;1026865;28;20339;-73
2023/11/20 01:54:18;;;;;;;0.00;0.00;;;;;;;7.51;100.00;95777.47;1027062;28;20030;-76
2023/11/20 01:54:48;;;;;;;0.00;0.00;;;;;;;7.49;100.00;95776.13;1022626;29;20017;-79
2023/11/20 01:55:19;;;;;;;0.57;0.10;;;;;;;7.57;100.00;95791.38;1026944;28;20030;-72
2023/11/20 01:55:50;;;;;;;0.20;0.20;;;;;;;7.58;100.00;95790.34;1030739;28;20033;-73
2023/11/20 01:56:20;;;;;;;0.63;0.63;;;;;;;7.58;100.00;95782.53;1030721;28;20261;-75
2023/11/20 01:56:51;;;;;;;0.08;0.08;;;;;;;7.55;100.00;95773.34;1026871;28;20023;-75
2023/11/20 01:57:21;;;;;;;0.20;0.20;;;;;;;7.52;100.00;95780.88;1026916;28;20074;-74
2023/11/20 01:57:52;;;;;;;0.88;0.28;;;;;;;7.56;100.00;95776.75;1034782;28;20842;-75
2023/11/20 01:58:23;;;;;;;0.10;0.10;;;;;;;7.52;100.00;95771.22;1030097;28;20037;-74
2023/11/20 01:58:54;;;;;;;0.10;0.10;;;;;;;7.52;100.00;95770.44;1034740;28;20025;-76
2023/11/20 01:59:24;;;;;;;0.00;0.00;;;;;;;7.55;100.00;95769.94;1026856;28;20142;-72
2023/11/20 01:59:55;;;;;;;1.10;0.40;;;;;;;7.56;100.00;95761.06;1026840;28;20258;-74
2023/11/20 02:00:26;;;;;;;0.00;0.00;;;;;;;7.57;100.00;95775.69;1023036;28;20120;-74
2023/11/20 02:00:56;;;;;;;0.38;0.38;;;;;;;7.54;100.00;95771.78;1022857;29;20447;-75
2023/11/20 02:01:27;;;;;;;0.05;0.05;;;;;;;7.54;100.00;95774.38;1023291;28;20266;-74
2023/11/20 02:01:57;;;;;;;0.10;0.10;;;;;;;7.46;100.00;95766.16;1029118;28;20023;-74
2023/11/20 02:02:28;;;;;;;0.20;0.20;;;;;;;7.48;100.00;95766.72;1030976;28;20022;-75
2023/11/20 02:02:58;;;;;;;0.00;0.00;;;;;;;7.50;100.00;95772.47;1026827;28;20019;-74
2023/11/20 02:03:29;;;;;;;0.15;0.10;;;;;;;7.45;100.00;95775.81;1031694;28;20077;-76
2023/11/20 02:04:00;;;;;;;0.10;0.10;;;;;;;7.40;100.00;95756.69;1030880;28;20031;-73
2023/11/20 02:04:30;;;;;;;0.00;0.00;;;;;;;7.43;100.00;95766.66;1024904;28;20026;-72
2023/11/20 02:05:01;;;;;;;0.00;0.00;;;;;;;7.47;100.00;95772.97;1023017;29;20030;-73
2023/11/20 02:05:31;;;;;;;0.10;0.10;;;;;;;7.41;100.00;95763.47;1026558;28;20529;-74
2023/11/20 02:06:02;;;;;;;0.00;0.00;;;;;;;7.44;100.00;95765.59;1022980;29;20027;-73
2023/11/20 02:06:32;;;;;;;0.00;0.00;;;;;;;7.44;100.00;95768.22;1022953;29;20067;-75
2023/11/20 02:07:04;;;;;;;0.00;0.00;;;;;;;7.44;100.00;95768.22;1023095;28;20027;-73
2023/11/20 02:07:37;;;;;;;0.10;0.05;;;;;;;7.43;100.00;95767.44;1027308;28;20054;-72
2023/11/20 02:08:07;;;;;;;0.00;0.00;;;;;;;7.38;100.00;95758.75;1028051;28;20852;-73
2023/11/20 02:08:38;;;;;;;0.15;0.15;;;;;;;7.40;100.00;95769.75;1030647;28;20280;-73
2023/11/20 02:09:08;;;;;;;0.00;0.00;;;;;;;7.40;100.00;95767.13;1031040;28;20025;-74
2023/11/20 02:09:39;;;;;;;0.17;0.17;;;;;;;7.39;100.00;95762.94;1030893;28;20029;-73
2023/11/20 02:10:10;;;;;;;0.15;0.15;;;;;;;7.31;100.00;95749.28;1030765;28;20030;-73
2023/11/20 02:10:40;;;;;;;0.00;0.00;;;;;;;7.38;100.00;95770.00;1026830;28;20098;-73
2023/11/20 02:11:11;;;;;;;0.05;0.05;;;;;;;7.38;100.00;95764.78;1026369;28;20330;-74
2023/11/20 02:11:41;;;;;;;0.47;0.08;;;;;;;7.36;100.00;95766.81;1023146;28;20030;-74
2023/11/20 02:12:12;;;;;;;0.00;0.00;;;;;;;7.35;100.00;95774.91;1026432;28;20035;-74
2023/11/20 02:12:42;;;;;;;0.00;0.00;;;;;;;7.23;100.00;95757.50;1030898;28;20502;-73
2023/11/20 02:13:14;;;;;;;0.00;0.00;;;;;;;7.28;100.00;95768.03;1030926;28;20367;-72
2023/11/20 02:13:45;;;;;;;0.20;0.20;;;;;;;7.29;100.00;95772.22;1034635;28;20072;-72
2023/11/20 02:14:15;;;;;;;0.15;0.15;;;;;;;7.26;100.00;95764.88;1030849;28;20328;-73
2023/11/20 02:14:46;;;;;;;0.00;0.00;;;;;;;7.27;100.00;95766.44;1034911;28;20037;-74
2023/11/20 02:15:16;;;;;;;0.10;0.10;;;;;;;7.27;100.00;95760.44;1034773;28;20117;-74
2023/11/20 02:15:47;;;;;;;0.00;0.00;;;;;;;7.22;100.00;95745.50;1034817;28;20030;-73
2023/11/20 02:16:17;;;;;;;0.10;0.10;;;;;;;7.27;100.00;95757.81;1030822;28;20014;-73
2023/11/20 02:16:48;;;;;;;0.08;0.08;;;;;;;7.27;100.00;95755.22;1030882;28;20014;-73
2023/11/20 02:17:18;;;;;;;0.10;0.10;;;;;;;7.23;100.00;95757.50;1028032;28;20666;-75
2023/11/20 02:17:49;;;;;;;0.30;0.10;;;;;;;7.18;100.00;95754.84;1029421;28;20720;-73
2023/11/20 02:18:29;;;;;;;0.00;0.00;;;;;;;7.25;100.00;95763.28;1026845;28;20586;-74
2023/11/20 02:19:09;;;;;;;;;;;;;;;7.23;100.00;95773.16;1034075;28;20037;-73
2023/11/20 02:19:44;;;;;;;0.05;0.05;;;;;;;7.15;100.00;95764.97;1030791;28;19898;-72
2023/11/20 02:20:14;;;;;;;0.22;0.22;;;;;;;7.19;100.00;95777.28;1030830;28;20286;-73
2023/11/20 02:20:45;;;;;;;0.00;0.00;;;;;;;7.11;100.00;95769.88;1026733;28;20742;-76
2023/11/20 02:21:15;;;;;;;0.35;0.35;;;;;;;7.15;100.00;95781.41;1030406;28;20684;-73
2023/11/20 02:21:46;;;;;;;0.00;0.00;;;;;;;7.12;100.00;95770.66;1030937;28;20071;-73
2023/11/20 02:22:16;;;;;;;0.00;0.00;;;;;;;7.14;100.00;95782.44;1030141;28;20014;-73
2023/11/20 02:22:47;;;;;;;0.10;0.10;;;;;;;7.21;100.00;95784.88;1023378;28;20015;-73
2023/11/20 02:23:17;;;;;;;0.00;0.00;;;;;;;7.19;100.00;95782.50;1027021;28;20486;-73
2023/11/20 02:23:48;;;;;;;0.22;0.22;;;;;;;7.19;100.00;95787.72;1026350;28;20030;-73
2023/11/20 02:24:21;;;;;;;0.00;0.00;;;;;;;7.12;100.00;95779.28;1023428;28;20027;-75
2023/11/20 02:24:52;;;;;;;0.20;0.20;;;;;;;7.10;100.00;95783.94;1027660;28;20040;-74
2023/11/20 02:25:22;;;;;;;0.95;0.40;;;;;;;7.12;100.00;95787.13;1027806;28;20246;-73